Englesville, Pennsylvania
Current Conditions -  °F | °C
As of 1:54 AM on Monday 22 Dec 2014 (Local Time) from KPTW Reporting Station
Overcast Overcast  
Wind Chill: 23°   Ceiling: 2500
Heat Index: 23°   Visibility: 8mi
Dew Point: 20°   Wind: 0mph
Humidity: 88%   Direction: NA
Pressure: 30.34"   Gusts: NA
Location:  40.3481°N, 75.6818°W
Report Text: KPTW 220654Z AUTO 00000KT 8SM OVC025 M05/M07 A3034 RMK AO2 SLP276 T10501067
Loading
Personal Weather Stations






























Interactive Weather Map New forecast layout! Learn more

10-Day Weather Forecast

Advertisements
Track Severe Weather on mobile